Parres, Spain
Current Conditions -  °F | °C
As of 11:30 PM on Thursday 18 Dec 2014 (Local Time) from LEAS Reporting Station
Scattered Clouds Scattered Clouds  
Wind Chill: 42°   Ceiling: Unl
Heat Index: 46°   Visibility: 6mi
Dew Point: 43°   Wind: 9mph
Humidity: 87%   Direction: 230°SW
Pressure: 30.45"   Gusts: NA
Location:  43.35°N, 5.15°W
Report Text: LEAS 182230Z 23008KT 9999 SCT030 08/06 Q1031 NOSIG
Loading
Personal Weather Stations






























Interactive Weather Map New forecast layout! Learn more

10-Day Weather Forecast

Advertisements
Track Severe Weather on mobile